Time;durP1;ratioP1;P1;durP2;ratioP2;P2;SDS_P1;SDS_P2;PMS_P1;PMS_P2;Temp;Humidity;BMP_temperature;BMP_pressure;BME280_temperature;BME280_humidity;BME280_pressure;Samples;Min_cycle;Max_cycle;Signal;HPM_P1;HPM_P2
2021/10/01 00:01:14;;;;;;;8.07;6.20;;;7.50;99.90;;;;;;5076136;28;20447;-55
2021/10/01 00:03:40;;;;;;;6.80;6.10;;;7.50;99.90;;;;;;5064057;28;20948;-56
2021/10/01 00:06:05;;;;;;;7.37;5.53;;;7.50;99.90;;;;;;5087187;28;20902;-54
2021/10/01 00:08:32;;;;;;;7.33;5.67;;;7.50;99.90;;;;;;5077335;28;20585;-56
2021/10/01 00:10:58;;;;;;;6.60;5.93;;;7.50;99.90;;;;;;5072316;28;20196;-52
2021/10/01 00:13:27;;;;;;;7.43;6.13;;;7.50;99.90;;;;;;5078955;28;20910;-60
2021/10/01 00:15:53;;;;;;;11.13;5.90;;;7.40;99.90;;;;;;5065253;28;20829;-54
2021/10/01 00:18:20;;;;;;;7.03;6.27;;;7.40;99.90;;;;;;5067951;28;20459;-53
2021/10/01 00:20:45;;;;;;;6.57;5.73;;;7.40;99.90;;;;;;5061498;28;21002;-56
2021/10/01 00:23:11;;;;;;;6.50;5.90;;;7.40;99.90;;;;;;5070234;28;20511;-53
2021/10/01 00:25:37;;;;;;;6.80;6.20;;;7.40;99.90;;;;;;5067416;28;20331;-54
2021/10/01 00:28:03;;;;;;;8.07;6.10;;;7.40;99.90;;;;;;5071372;28;20185;-61
2021/10/01 00:30:28;;;;;;;6.70;6.10;;;7.40;99.90;;;;;;5066127;28;20440;-55
2021/10/01 00:32:54;;;;;;;7.87;6.47;;;7.30;99.90;;;;;;5066958;28;20174;-55
2021/10/01 00:35:20;;;;;;;8.40;5.80;;;7.30;99.90;;;;;;5067632;28;20193;-56
2021/10/01 00:37:46;;;;;;;6.30;5.70;;;7.40;99.90;;;;;;5080990;28;20193;-54
2021/10/01 00:40:13;;;;;;;6.87;6.03;;;7.40;99.90;;;;;;5075636;28;20471;-54
2021/10/01 00:42:38;;;;;;;7.03;6.10;;;7.30;99.90;;;;;;5076405;28;20435;-55
2021/10/01 00:45:05;;;;;;;9.33;6.70;;;7.30;99.90;;;;;;5066198;28;20448;-54
2021/10/01 00:47:31;;;;;;;7.50;6.70;;;7.40;99.90;;;;;;5059737;28;20470;-54
2021/10/01 00:49:56;;;;;;;8.10;6.07;;;7.40;99.90;;;;;;5073376;28;20439;-55
2021/10/01 00:52:22;;;;;;;7.13;5.80;;;7.40;99.90;;;;;;5081342;28;20188;-55
2021/10/01 00:54:48;;;;;;;6.53;5.93;;;7.40;99.90;;;;;;5066767;28;20194;-54
2021/10/01 00:57:15;;;;;;;6.80;6.10;;;7.40;99.90;;;;;;5063085;28;20439;-52
2021/10/01 00:59:40;;;;;;;6.77;5.97;;;7.30;99.90;;;;;;5067199;28;20802;-54
2021/10/01 01:02:06;;;;;;;6.90;6.20;;;7.30;99.90;;;;;;5066770;28;20439;-56
2021/10/01 01:04:33;;;;;;;8.03;6.20;;;7.20;99.90;;;;;;5076538;28;20212;-55
2021/10/01 01:07:21;;;;;;;8.80;5.70;;;7.20;99.90;;;;;;5068292;28;20438;-62
2021/10/01 01:10:15;;;;;;;6.20;5.60;;;7.20;99.90;;;;;;5057339;28;20440;-54
2021/10/01 01:13:16;;;;;;;6.80;6.10;;;7.20;99.90;;;;;;5088300;28;20415;-61
2021/10/01 01:15:51;;;;;;;6.37;5.77;;;7.20;99.90;;;;;;5065580;28;20517;-55
2021/10/01 01:18:26;;;;;;;6.10;5.50;;;7.20;99.90;;;;;;5061787;28;20424;-56
2021/10/01 01:20:53;;;;;;;6.43;5.60;;;7.20;99.90;;;;;;5055637;28;20922;-54
2021/10/01 01:23:56;;;;;;;6.20;5.60;;;7.20;99.90;;;;;;5068130;28;20497;-53
2021/10/01 01:26:49;;;;;;;6.43;5.73;;;7.20;99.90;;;;;;5061046;28;20497;-55
2021/10/01 01:29:35;;;;;;;5.47;4.97;;;7.20;99.90;;;;;;5063173;28;20994;-53
2021/10/01 01:32:18;;;;;;;6.20;5.57;;;7.20;99.90;;;;;;5073063;28;20447;-54
2021/10/01 01:35:09;;;;;;;6.80;5.37;;;7.20;99.90;;;;;;5061032;28;20922;-53
2021/10/01 01:37:40;;;;;;;7.30;6.00;;;7.20;99.90;;;;;;5075530;28;20431;-57
2021/10/01 01:40:09;;;;;;;7.17;5.53;;;7.20;99.90;;;;;;5074881;28;20471;-56
2021/10/01 01:42:37;;;;;;;5.77;5.17;;;7.20;99.90;;;;;;5080793;28;20447;-52
2021/10/01 01:45:06;;;;;;;5.88;5.30;;;7.20;99.90;;;;;;5067274;28;20860;-55
2021/10/01 01:47:33;;;;;;;5.93;5.43;;;7.20;99.90;;;;;;5070523;28;20185;-55
2021/10/01 01:50:01;;;;;;;6.30;5.67;;;7.20;99.90;;;;;;5076938;28;20459;-52
2021/10/01 01:52:28;;;;;;;5.57;5.05;;;7.20;99.90;;;;;;5091465;28;20472;-55
2021/10/01 01:54:55;;;;;;;6.90;5.83;;;7.20;99.90;;;;;;5066033;28;20281;-55
2021/10/01 01:57:23;;;;;;;6.30;5.70;;;7.20;99.90;;;;;;5068435;28;20487;-55
2021/10/01 01:59:50;;;;;;;8.60;5.77;;;7.20;99.90;;;;;;5071533;28;20502;-55
2021/10/01 02:02:17;;;;;;;5.80;5.20;;;7.30;99.90;;;;;;5079206;28;20431;-57
2021/10/01 02:04:44;;;;;;;6.10;5.50;;;7.30;99.90;;;;;;5071779;28;21123;-53
2021/10/01 02:07:11;;;;;;;6.40;5.80;;;7.40;99.90;;;;;;5067015;28;20921;-54
2021/10/01 02:09:37;;;;;;;6.27;5.63;;;7.30;99.90;;;;;;5066975;28;20181;-54
2021/10/01 02:12:04;;;;;;;6.60;5.40;;;7.20;99.90;;;;;;5072414;28;20566;-53
2021/10/01 02:14:34;;;;;;;6.03;5.43;;;7.20;99.90;;;;;;5079767;28;20431;-53
2021/10/01 02:17:00;;;;;;;6.00;5.47;;;7.20;99.90;;;;;;5081454;28;20441;-52
2021/10/01 02:19:31;;;;;;;5.90;5.30;;;7.20;99.90;;;;;;5072220;28;21040;-55
2021/10/01 02:21:58;;;;;;;6.47;5.27;;;7.20;99.90;;;;;;5082559;28;20411;-52
2021/10/01 02:24:28;;;;;;;5.80;5.23;;;7.10;99.90;;;;;;5065047;28;20432;-54
2021/10/01 02:27:09;;;;;;;7.00;6.20;;;7.10;99.90;;;;;;5068004;28;20943;-55
2021/10/01 02:29:51;;;;;;;8.90;5.83;;;7.10;99.90;;;;;;5066780;28;20265;-54
2021/10/01 02:32:26;;;;;;;6.00;5.43;;;7.00;99.90;;;;;;5063387;28;20428;-53
2021/10/01 02:34:52;;;;;;;6.45;5.30;;;7.10;99.90;;;;;;5058196;28;20882;-54
2021/10/01 02:37:19;;;;;;;5.67;5.17;;;7.10;99.90;;;;;;5077417;28;20314;-54
2021/10/01 02:39:47;;;;;;;7.10;5.13;;;7.10;99.90;;;;;;5075553;28;20652;-56
2021/10/01 02:42:15;;;;;;;5.27;4.80;;;7.20;99.90;;;;;;5071431;28;20439;-53
2021/10/01 02:44:42;;;;;;;6.38;5.78;;;7.10;99.90;;;;;;5064136;28;20472;-54
2021/10/01 02:47:09;;;;;;;5.80;5.20;;;7.10;99.90;;;;;;5076816;28;20192;-52
2021/10/01 02:49:36;;;;;;;5.93;5.37;;;7.10;99.90;;;;;;5066508;28;20977;-54
2021/10/01 02:52:12;;;;;;;6.00;5.40;;;7.00;99.90;;;;;;5064165;28;20531;-60
2021/10/01 02:55:02;;;;;;;6.55;5.78;;;6.90;99.90;;;;;;5069133;28;20443;-57
2021/10/01 02:57:38;;;;;;;5.90;5.40;;;6.90;99.90;;;;;;5082720;28;20216;-56
2021/10/01 03:00:05;;;;;;;6.10;5.50;;;6.80;99.90;;;;;;5069398;28;20258;-55
2021/10/01 03:02:32;;;;;;;8.73;6.15;;;6.80;99.90;;;;;;5064730;28;20743;-55
2021/10/01 03:05:00;;;;;;;6.60;5.68;;;6.80;99.90;;;;;;5070258;28;20192;-56
2021/10/01 03:07:27;;;;;;;6.40;5.40;;;6.80;99.90;;;;;;5073163;28;20203;-52
2021/10/01 03:09:53;;;;;;;6.90;6.20;;;6.80;99.90;;;;;;5069129;28;20552;-47
2021/10/01 03:12:21;;;;;;;6.27;5.67;;;6.80;99.90;;;;;;5071733;28;20885;-55
2021/10/01 03:14:48;;;;;;;6.70;6.00;;;6.70;99.90;;;;;;5069549;28;20435;-53
2021/10/01 03:17:14;;;;;;;6.70;6.00;;;6.70;99.90;;;;;;5068706;28;20235;-54
2021/10/01 03:19:40;;;;;;;6.73;6.03;;;6.70;99.90;;;;;;5065641;28;20464;-57
2021/10/01 03:22:06;;;;;;;6.93;5.90;;;6.70;99.90;;;;;;5065595;28;20213;-57
2021/10/01 03:24:32;;;;;;;12.45;6.55;;;6.80;99.90;;;;;;5062848;28;20439;-54
2021/10/01 03:26:58;;;;;;;6.80;6.20;;;6.70;99.90;;;;;;5070066;28;20685;-55
2021/10/01 03:29:24;;;;;;;6.00;5.40;;;6.70;99.90;;;;;;5070488;28;20190;-55
2021/10/01 03:31:50;;;;;;;7.10;6.40;;;6.70;99.90;;;;;;5067159;28;20180;-56
2021/10/01 03:34:17;;;;;;;9.40;6.30;;;6.70;99.90;;;;;;5067479;28;20816;-53
2021/10/01 03:36:44;;;;;;;9.27;6.78;;;6.70;99.90;;;;;;5073002;28;20264;-55
2021/10/01 03:39:10;;;;;;;6.53;5.68;;;6.70;99.90;;;;;;5076031;28;20203;-55
2021/10/01 03:41:36;;;;;;;7.23;6.53;;;6.70;99.90;;;;;;5064750;28;20178;-56
2021/10/01 03:44:01;;;;;;;8.17;6.90;;;6.70;99.90;;;;;;5064868;28;20471;-54
2021/10/01 03:46:27;;;;;;;7.33;6.30;;;6.70;99.90;;;;;;5065583;28;20451;-56
2021/10/01 03:48:53;;;;;;;6.70;6.00;;;6.60;99.90;;;;;;5079230;28;20431;-56
2021/10/01 03:51:20;;;;;;;6.90;6.20;;;6.60;99.90;;;;;;5070326;28;20634;-57
2021/10/01 03:53:46;;;;;;;9.10;6.50;;;6.60;99.90;;;;;;5058824;28;20221;-55
2021/10/01 03:56:17;;;;;;;6.63;5.70;;;6.70;99.90;;;;;;5063154;28;20213;-55
2021/10/01 03:58:47;;;;;;;6.18;5.57;;;6.60;99.90;;;;;;5067853;28;20425;-52
2021/10/01 04:01:12;;;;;;;7.00;5.90;;;6.60;99.90;;;;;;5067231;28;20275;-53
2021/10/01 04:03:38;;;;;;;7.93;5.70;;;6.60;99.90;;;;;;5064062;28;20269;-55
2021/10/01 04:06:04;;;;;;;7.32;6.00;;;6.70;99.90;;;;;;5065669;28;20186;-54
2021/10/01 04:08:31;;;;;;;7.50;5.83;;;6.70;99.90;;;;;;5069198;28;20251;-53
2021/10/01 04:10:57;;;;;;;6.45;5.80;;;6.60;99.90;;;;;;5068962;28;20861;-54
2021/10/01 04:13:22;;;;;;;6.63;6.03;;;6.60;99.90;;;;;;5079204;28;20212;-52
2021/10/01 04:15:48;;;;;;;7.50;6.00;;;6.60;99.90;;;;;;5067467;28;20950;-53
2021/10/01 04:18:14;;;;;;;6.70;5.82;;;6.60;99.90;;;;;;5067917;28;20205;-55
2021/10/01 04:20:43;;;;;;;7.57;5.30;;;6.60;99.90;;;;;;5068381;28;20217;-52
2021/10/01 04:23:08;;;;;;;7.28;5.90;;;6.60;99.90;;;;;;5062631;28;20544;-52
2021/10/01 04:25:34;;;;;;;6.60;5.90;;;6.60;99.90;;;;;;5075490;28;20687;-55
2021/10/01 04:28:00;;;;;;;6.00;5.30;;;6.60;99.90;;;;;;5068128;28;20185;-63
2021/10/01 04:30:26;;;;;;;6.90;5.70;;;6.60;99.90;;;;;;5077349;28;21550;-53
2021/10/01 04:33:03;;;;;;;7.50;6.53;;;6.60;99.90;;;;;;5073467;28;20675;-54
2021/10/01 04:35:28;;;;;;;5.82;5.22;;;6.60;99.90;;;;;;5066979;28;20458;-56
2021/10/01 04:37:54;;;;;;;6.90;6.20;;;6.60;99.90;;;;;;5073400;28;21064;-54
2021/10/01 04:40:19;;;;;;;6.50;5.83;;;6.50;99.90;;;;;;5077364;28;20217;-53
2021/10/01 04:42:45;;;;;;;6.40;5.80;;;6.50;99.90;;;;;;5063370;28;20253;-52
2021/10/01 04:45:11;;;;;;;6.90;6.30;;;6.50;99.90;;;;;;5088869;28;20229;-54
2021/10/01 04:47:37;;;;;;;7.63;5.90;;;6.50;99.90;;;;;;5088546;28;20547;-55
2021/10/01 04:50:05;;;;;;;6.67;6.07;;;6.50;99.90;;;;;;5084536;28;20200;-52
2021/10/01 04:52:30;;;;;;;6.38;5.75;;;6.50;99.90;;;;;;5068951;28;20420;-54
2021/10/01 04:54:56;;;;;;;7.77;6.30;;;6.50;99.90;;;;;;5055537;28;20200;-55
2021/10/01 04:57:22;;;;;;;7.90;6.40;;;6.50;99.90;;;;;;5067809;28;20515;-53
2021/10/01 04:59:47;;;;;;;7.03;5.83;;;6.50;99.90;;;;;;5067133;28;20209;-54
2021/10/01 05:02:13;;;;;;;6.37;5.77;;;6.50;99.90;;;;;;5060725;28;20186;-54
2021/10/01 05:04:38;;;;;;;6.53;5.83;;;6.50;99.90;;;;;;5072134;28;20186;-53
2021/10/01 05:07:04;;;;;;;6.50;5.63;;;6.50;99.90;;;;;;5072259;28;20186;-56
2021/10/01 05:09:29;;;;;;;6.87;5.77;;;6.60;99.90;;;;;;5072309;28;20280;-53
2021/10/01 05:11:55;;;;;;;6.70;6.10;;;6.70;99.90;;;;;;5073023;28;20190;-53
2021/10/01 05:14:20;;;;;;;5.13;4.60;;;6.70;99.90;;;;;;5072716;28;20193;-53
2021/10/01 05:16:46;;;;;;;5.27;4.70;;;6.80;99.90;;;;;;5072651;28;20186;-56
2021/10/01 05:19:12;;;;;;;5.40;4.90;;;6.90;99.90;;;;;;5071968;28;21060;-56
2021/10/01 05:21:37;;;;;;;5.70;4.50;;;6.90;99.90;;;;;;5071028;28;20961;-53
2021/10/01 05:24:03;;;;;;;7.07;5.57;;;7.00;99.90;;;;;;5070701;28;20185;-55
2021/10/01 05:26:29;;;;;;;5.40;4.90;;;7.10;99.90;;;;;;5072387;28;20189;-51
2021/10/01 05:28:55;;;;;;;5.70;5.20;;;7.10;99.90;;;;;;5076863;28;20507;-53
2021/10/01 05:31:21;;;;;;;6.60;5.90;;;7.20;99.90;;;;;;5076316;28;20196;-53
2021/10/01 05:33:47;;;;;;;5.73;5.23;;;7.20;99.90;;;;;;5083821;28;20440;-50
2021/10/01 05:36:13;;;;;;;5.60;5.00;;;7.30;99.90;;;;;;5071594;28;20185;-54
2021/10/01 05:38:38;;;;;;;6.33;4.37;;;7.40;99.90;;;;;;5071209;28;20462;-54
2021/10/01 05:41:04;;;;;;;4.63;4.23;;;7.40;99.90;;;;;;5071286;28;20189;-54
2021/10/01 05:43:30;;;;;;;4.70;4.30;;;7.50;99.90;;;;;;5064128;28;20659;-53
2021/10/01 05:45:57;;;;;;;5.13;4.63;;;7.60;99.90;;;;;;5058638;28;20193;-55
2021/10/01 05:48:25;;;;;;;7.27;5.13;;;7.70;99.90;;;;;;5076928;28;20174;-56
2021/10/01 05:50:57;;;;;;;6.63;4.40;;;7.80;99.90;;;;;;5086287;28;20422;-57
2021/10/01 05:53:35;;;;;;;5.10;4.50;;;7.90;99.90;;;;;;5071202;28;20392;-55
2021/10/01 05:56:03;;;;;;;5.70;4.47;;;7.90;99.90;;;;;;5071562;28;20918;-55
2021/10/01 05:58:28;;;;;;;4.40;3.97;;;8.00;99.90;;;;;;5071862;28;20805;-56
2021/10/01 06:00:57;;;;;;;4.87;4.07;;;8.10;99.90;;;;;;5070604;28;20404;-55
2021/10/01 06:03:23;;;;;;;4.67;4.00;;;8.20;99.90;;;;;;5075859;28;20181;-51
2021/10/01 06:05:49;;;;;;;4.43;4.03;;;8.30;99.90;;;;;;5067599;28;20590;-55
2021/10/01 06:08:15;;;;;;;4.90;4.40;;;8.40;99.90;;;;;;5072142;28;20483;-54
2021/10/01 06:10:40;;;;;;;5.40;4.50;;;8.50;99.90;;;;;;5072124;28;20548;-57
2021/10/01 06:13:06;;;;;;;5.20;4.37;;;8.50;99.90;;;;;;5070779;28;20185;-54
2021/10/01 06:15:32;;;;;;;5.97;4.47;;;8.60;99.90;;;;;;5063382;28;20182;-54
2021/10/01 06:17:57;;;;;;;5.73;4.40;;;8.70;99.90;;;;;;5067442;28;20192;-56
2021/10/01 06:20:24;;;;;;;5.17;4.00;;;8.70;99.90;;;;;;5071397;28;20255;-53
2021/10/01 06:22:49;;;;;;;4.90;4.40;;;8.80;99.90;;;;;;5075945;28;20215;-53
2021/10/01 06:25:15;;;;;;;4.70;3.90;;;8.90;99.90;;;;;;5073245;28;20560;-50
2021/10/01 06:27:41;;;;;;;5.23;4.70;;;8.90;99.90;;;;;;5071533;28;20182;-60
2021/10/01 06:30:09;;;;;;;4.93;4.53;;;9.00;99.90;;;;;;5070633;28;20239;-55
2021/10/01 06:32:35;;;;;;;4.87;4.40;;;9.10;99.90;;;;;;5071476;28;20396;-54
2021/10/01 06:35:03;;;;;;;5.10;4.60;;;9.10;99.90;;;;;;5071123;28;20459;-55
2021/10/01 06:37:29;;;;;;;5.13;4.63;;;9.10;99.90;;;;;;5070545;28;20427;-63
2021/10/01 06:39:54;;;;;;;5.90;5.10;;;9.10;99.90;;;;;;5071512;28;20569;-59
2021/10/01 06:42:20;;;;;;;4.90;4.50;;;9.20;99.90;;;;;;5070554;28;20822;-53
2021/10/01 06:44:48;;;;;;;4.90;4.40;;;9.30;99.90;;;;;;5062028;28;20330;-56
2021/10/01 06:50:20;;;;;;;4.97;4.47;;;9.40;99.90;;;;;;5039250;28;20419;-51
2021/10/01 07:38:51;;;;;;;5.93;5.33;;;11.30;99.90;;;;;;5083543;28;20445;-54
2021/10/01 08:20:17;;;;;;;6.20;5.70;;;15.70;94.00;;;;;;5068802;28;20459;-55
2021/10/01 08:22:43;;;;;;;6.60;6.00;;;16.20;92.30;;;;;;5064281;28;20499;-51
2021/10/01 08:25:09;;;;;;;6.53;5.93;;;16.50;91.50;;;;;;5063308;28;20495;-56
2021/10/01 08:27:35;;;;;;;6.07;5.57;;;16.90;90.90;;;;;;5067874;28;20179;-53
2021/10/01 08:30:04;;;;;;;5.70;5.30;;;17.20;89.30;;;;;;5074408;28;20432;-52
2021/10/01 08:32:29;;;;;;;6.20;5.67;;;17.40;86.50;;;;;;5089640;28;20393;-57
2021/10/01 08:34:55;;;;;;;6.00;5.50;;;17.60;86.10;;;;;;5073802;28;21138;-56
2021/10/01 08:37:21;;;;;;;6.30;5.77;;;17.90;83.90;;;;;;5069154;28;20172;-53
2021/10/01 08:39:46;;;;;;;5.30;5.00;;;18.10;81.40;;;;;;5068097;28;20656;-55
2021/10/01 08:42:12;;;;;;;6.33;5.77;;;18.10;80.60;;;;;;5068646;28;20187;-52
2021/10/01 08:44:38;;;;;;;5.87;5.47;;;18.10;80.60;;;;;;5068949;28;20231;-61
2021/10/01 08:47:05;;;;;;;6.30;5.90;;;18.60;79.30;;;;;;5064515;28;20174;-55
2021/10/01 08:49:31;;;;;;;6.80;6.20;;;19.30;77.90;;;;;;5068974;28;20185;-59
2021/10/01 08:51:58;;;;;;;5.97;5.57;;;19.70;76.00;;;;;;5069583;28;20865;-52
2021/10/01 08:54:25;;;;;;;6.47;5.97;;;20.20;72.60;;;;;;5073475;28;20431;-55
2021/10/01 08:56:51;;;;;;;5.90;5.40;;;20.10;69.80;;;;;;5086877;28;20790;-55
2021/10/01 08:59:17;;;;;;;6.17;5.70;;;20.40;68.50;;;;;;5080397;28;20474;-56
2021/10/01 09:01:42;;;;;;;5.93;5.40;;;20.80;68.30;;;;;;5068464;28;20412;-53
2021/10/01 09:04:10;;;;;;;5.60;5.20;;;21.30;66.00;;;;;;5058931;28;20204;-56
2021/10/01 09:06:36;;;;;;;4.80;4.60;;;21.70;64.10;;;;;;5064138;28;20182;-56
2021/10/01 09:09:06;;;;;;;5.40;5.10;;;22.40;60.30;;;;;;5060503;28;20426;-54
2021/10/01 09:11:35;;;;;;;5.10;4.80;;;22.30;55.80;;;;;;5067970;28;20179;-54
2021/10/01 09:14:04;;;;;;;5.03;4.63;;;22.60;57.50;;;;;;5068872;28;20440;-56
2021/10/01 09:16:30;;;;;;;4.90;4.70;;;22.60;56.70;;;;;;5084169;28;20488;-57
2021/10/01 09:18:56;;;;;;;4.80;4.40;;;22.50;53.80;;;;;;5068573;28;20937;-55
2021/10/01 09:21:23;;;;;;;5.80;5.20;;;22.80;55.40;;;;;;5066019;28;20424;-50
2021/10/01 09:23:57;;;;;;;4.90;4.60;;;22.90;53.40;;;;;;5067649;28;20193;-55
2021/10/01 09:26:25;;;;;;;4.83;4.53;;;23.50;50.70;;;;;;5068948;28;20406;-51
2021/10/01 09:28:55;;;;;;;5.03;4.73;;;23.40;50.70;;;;;;5064266;28;20485;-55
2021/10/01 09:31:42;;;;;;;5.10;4.80;;;23.50;47.80;;;;;;5059983;28;20482;-55
2021/10/01 09:34:16;;;;;;;4.83;4.53;;;22.90;48.00;;;;;;5056722;28;20422;-54
2021/10/01 09:36:42;;;;;;;5.03;4.73;;;22.30;47.10;;;;;;5074667;28;20437;-55
2021/10/01 09:39:24;;;;;;;5.00;4.70;;;22.20;48.80;;;;;;5078056;28;20977;-53
2021/10/01 09:41:50;;;;;;;5.07;4.77;;;22.70;48.00;;;;;;5067263;28;21131;-62
2021/10/01 09:44:16;;;;;;;5.30;5.00;;;23.60;49.50;;;;;;5079258;28;20468;-53
2021/10/01 09:46:47;;;;;;;5.10;4.80;;;22.90;45.30;;;;;;5081176;28;20260;-55
2021/10/01 09:49:15;;;;;;;5.17;4.87;;;22.80;46.40;;;;;;5079310;28;20437;-55
2021/10/01 09:51:48;;;;;;;5.27;4.83;;;22.80;46.50;;;;;;5084151;28;20523;-55
2021/10/01 09:54:15;;;;;;;4.50;4.30;;;22.90;46.90;;;;;;5073045;28;20523;-55
2021/10/01 09:56:42;;;;;;;4.57;4.37;;;23.20;46.60;;;;;;5064062;28;20439;-52
2021/10/01 09:59:19;;;;;;;4.20;4.00;;;23.40;46.40;;;;;;5081026;28;20821;-55
2021/10/01 10:02:05;;;;;;;5.20;4.80;;;23.90;46.70;;;;;;5067221;28;20463;-57
2021/10/01 10:04:43;;;;;;;4.83;4.53;;;24.50;44.20;;;;;;5070511;28;20442;-54
2021/10/01 10:07:19;;;;;;;4.87;4.57;;;24.50;43.00;;;;;;5072967;28;20413;-61
2021/10/01 10:10:07;;;;;;;5.33;4.90;;;24.70;43.50;;;;;;5071460;28;21050;-55
2021/10/01 10:12:32;;;;;;;4.80;4.50;;;25.20;42.30;;;;;;5070907;28;20523;-56
2021/10/01 10:14:58;;;;;;;4.73;4.43;;;25.20;40.70;;;;;;5075474;28;21006;-56
2021/10/01 10:17:26;;;;;;;4.90;4.60;;;25.60;42.10;;;;;;5071319;28;20300;-56
2021/10/01 10:19:55;;;;;;;4.87;4.57;;;26.00;40.80;;;;;;5077577;28;20201;-52
2021/10/01 10:22:22;;;;;;;4.80;4.50;;;26.50;39.50;;;;;;5071384;28;20932;-57
2021/10/01 10:24:48;;;;;;;4.90;4.60;;;26.30;38.30;;;;;;5069589;28;20415;-54
2021/10/01 10:27:14;;;;;;;4.57;4.27;;;26.60;38.60;;;;;;5069196;28;20543;-55
2021/10/01 10:29:43;;;;;;;4.50;4.20;;;26.30;37.30;;;;;;5069234;28;20421;-54
2021/10/01 10:32:13;;;;;;;4.87;4.57;;;26.00;37.20;;;;;;5070068;28;20190;-54
2021/10/01 10:34:54;;;;;;;4.80;4.50;;;25.30;38.40;;;;;;5070806;28;20455;-58
2021/10/01 10:37:33;;;;;;;4.40;4.00;;;25.30;38.10;;;;;;5070952;28;20770;-56
2021/10/01 10:40:13;;;;;;;4.57;4.37;;;25.70;39.60;;;;;;5070918;28;20462;-54
2021/10/01 10:42:44;;;;;;;4.57;4.37;;;26.10;99.90;;;;;;5066227;28;20422;-61
2021/10/01 10:45:24;;;;;;;5.10;4.70;;;25.70;99.90;;;;;;5066911;28;21075;-55
2021/10/01 10:47:54;;;;;;;5.07;4.67;;;25.90;99.90;;;;;;5070282;28;20452;-61
2021/10/01 10:50:25;;;;;;;5.13;4.77;;;26.10;99.90;;;;;;5068457;28;20896;-57
2021/10/01 10:55:50;;;;;;;5.20;4.90;;;25.70;99.90;;;;;;5069776;28;20942;-57
2021/10/01 10:58:22;;;;;;;5.03;4.73;;;25.40;99.90;;;;;;5067642;28;20427;-56
2021/10/01 11:00:55;;;;;;;5.30;5.00;;;25.50;99.90;;;;;;5068969;28;20770;-58
2021/10/01 11:03:23;;;;;;;5.33;5.00;;;26.10;99.90;;;;;;5064941;28;20415;-55
2021/10/01 11:06:13;;;;;;;5.20;4.90;;;26.90;99.90;;;;;;5067224;28;20449;-57
2021/10/01 11:08:44;;;;;;;4.83;4.53;;;26.40;99.90;;;;;;5046933;28;20450;-57
2021/10/01 11:11:44;;;;;;;5.40;5.00;;;26.60;99.90;;;;;;5069772;28;20769;-57
2021/10/01 11:14:15;;;;;;;5.33;5.03;;;26.70;99.90;;;;;;5050734;28;20788;-57
2021/10/01 11:16:42;;;;;;;5.53;5.23;;;26.30;99.90;;;;;;5067349;28;21689;-62
2021/10/01 11:19:10;;;;;;;5.50;5.10;;;26.30;99.90;;;;;;5053944;28;20474;-55
2021/10/01 11:21:44;;;;;;;5.50;5.20;;;26.60;99.90;;;;;;5056804;28;20467;-57
2021/10/01 11:24:19;;;;;;;5.50;5.20;;;26.60;99.90;;;;;;5072671;28;20422;-59
2021/10/01 11:26:58;;;;;;;5.40;4.90;;;27.00;99.90;;;;;;5077650;28;20418;-57
2021/10/01 11:29:37;;;;;;;4.80;4.50;;;27.10;99.90;;;;;;5064803;28;21130;-57
2021/10/01 11:32:08;;;;;;;5.30;5.00;;;28.00;99.90;;;;;;5068921;28;21117;-55
2021/10/01 11:34:48;;;;;;;5.43;5.13;;;27.50;99.90;;;;;;5067917;28;20416;-57
2021/10/01 11:37:23;;;;;;;5.50;5.20;;;28.00;99.90;;;;;;5068580;28;20450;-55
2021/10/01 11:39:50;;;;;;;5.33;5.03;;;28.10;99.90;;;;;;5074650;28;21036;-53
2021/10/01 11:42:29;;;;;;;4.73;4.40;;;28.70;99.90;;;;;;5071307;28;20418;-58
2021/10/01 11:44:56;;;;;;;5.37;4.97;;;28.50;99.90;;;;;;5079726;28;20431;-56
2021/10/01 11:47:22;;;;;;;5.57;5.23;;;28.10;99.90;;;;;;5067290;28;20420;-56
2021/10/01 11:49:59;;;;;;;5.00;4.70;;;26.80;99.90;;;;;;5068724;28;20415;-57
2021/10/01 11:52:27;;;;;;;5.03;4.73;;;26.30;99.90;;;;;;5066336;28;20427;-56
2021/10/01 11:54:59;;;;;;;5.53;5.10;;;26.20;99.90;;;;;;5066595;28;20437;-56
2021/10/01 11:57:48;;;;;;;4.63;4.40;;;26.00;99.90;;;;;;5067665;28;20430;-55
2021/10/01 12:00:17;;;;;;;4.97;4.67;;;26.10;99.90;;;;;;5069417;28;20469;-54
2021/10/01 12:02:48;;;;;;;4.87;4.67;;;26.40;99.90;;;;;;5065201;28;20426;-56
2021/10/01 12:05:34;;;;;;;5.10;4.80;;;25.70;99.90;;;;;;5071489;28;20438;-58
2021/10/01 12:08:04;;;;;;;5.40;5.00;;;26.10;99.90;;;;;;5064886;28;20514;-57
2021/10/01 12:10:34;;;;;;;5.67;5.27;;;26.30;99.90;;;;;;5067311;28;20929;-51
2021/10/01 12:13:02;;;;;;;5.60;5.10;;;25.40;99.90;;;;;;5064675;28;20433;-56
2021/10/01 12:16:00;;;;;;;5.63;5.23;;;25.20;99.90;;;;;;5062646;28;20842;-52
2021/10/01 12:18:41;;;;;;;5.20;4.80;;;25.30;99.90;;;;;;5057446;28;20453;-54
2021/10/01 12:21:22;;;;;;;5.60;5.30;;;25.40;99.90;;;;;;5069007;28;20460;-58
2021/10/01 12:24:11;;;;;;;5.77;5.40;;;26.10;99.90;;;;;;5064747;28;20555;-56
2021/10/01 12:26:45;;;;;;;5.60;5.20;;;26.30;99.90;;;;;;5087118;28;20641;-54
2021/10/01 12:29:20;;;;;;;5.30;4.97;;;25.90;99.90;;;;;;5088994;28;20429;-57
2021/10/01 12:31:54;;;;;;;6.37;5.87;;;26.10;99.90;;;;;;5076970;28;20851;-53
2021/10/01 12:34:22;;;;;;;5.47;5.10;;;26.80;99.90;;;;;;5076581;28;20430;-55
2021/10/01 12:36:52;;;;;;;5.33;5.03;;;27.20;99.90;;;;;;5071698;28;21021;-53
2021/10/01 12:39:18;;;;;;;5.80;5.27;;;27.40;99.90;;;;;;5082182;28;20950;-57
2021/10/01 12:41:44;;;;;;;5.00;4.70;;;27.20;99.90;;;;;;5074027;28;20440;-57
2021/10/01 12:44:14;;;;;;;5.57;5.17;;;26.70;99.90;;;;;;5070111;28;20465;-57
2021/10/01 12:46:43;;;;;;;5.13;4.83;;;26.40;99.90;;;;;;5074605;28;20409;-55
2021/10/01 12:49:18;;;;;;;6.00;5.60;;;25.90;99.90;;;;;;5078490;28;20454;-56
2021/10/01 12:52:03;;;;;;;6.57;6.07;;;26.00;99.90;;;;;;5072678;28;20435;-54
2021/10/01 12:54:34;;;;;;;6.50;6.00;;;26.40;99.90;;;;;;5087155;28;20441;-57
2021/10/01 12:57:22;;;;;;;6.73;6.23;;;26.90;99.90;;;;;;5083113;28;20439;-55
2021/10/01 13:00:09;;;;;;;6.60;6.20;;;26.70;99.90;;;;;;5073750;28;21040;-57
2021/10/01 13:02:46;;;;;;;7.37;6.87;;;26.80;99.90;;;;;;5068578;28;20573;-56
2021/10/01 13:05:18;;;;;;;7.90;7.20;;;27.20;99.90;;;;;;5062512;28;20912;-55
2021/10/01 13:07:44;;;;;;;7.00;6.50;;;27.40;99.90;;;;;;5077091;28;20471;-55
2021/10/01 13:10:16;;;;;;;7.50;6.90;;;27.10;99.90;;;;;;5064195;28;20499;-55
2021/10/01 13:12:46;;;;;;;6.97;6.47;;;27.00;99.90;;;;;;5071911;28;20449;-54
2021/10/01 13:15:19;;;;;;;7.40;6.90;;;27.40;99.90;;;;;;5088356;28;21097;-57
2021/10/01 13:18:10;;;;;;;7.47;6.80;;;27.30;99.90;;;;;;5088449;28;20747;-56
2021/10/01 13:20:39;;;;;;;7.23;6.57;;;26.60;99.90;;;;;;5073690;28;21045;-59
2021/10/01 13:23:14;;;;;;;7.10;6.60;;;26.80;99.90;;;;;;5075656;28;20431;-54
2021/10/01 13:25:48;;;;;;;8.07;7.47;;;25.70;99.90;;;;;;5064349;28;20450;-59
2021/10/01 13:28:21;;;;;;;7.10;6.60;;;25.00;99.90;;;;;;5086219;28;20411;-57
2021/10/01 13:30:48;;;;;;;7.90;7.30;;;25.00;99.90;;;;;;5059078;28;20477;-54
2021/10/01 13:33:15;;;;;;;7.13;6.63;;;25.60;99.90;;;;;;5077424;28;20484;-55
2021/10/01 13:35:41;;;;;;;6.93;6.50;;;26.00;99.90;;;;;;5071103;28;20442;-51
2021/10/01 13:38:08;;;;;;;6.60;6.20;;;25.50;99.90;;;;;;5085013;28;20433;-55
2021/10/01 13:40:35;;;;;;;7.10;6.60;;;25.10;99.90;;;;;;5071391;28;20476;-56
2021/10/01 13:43:01;;;;;;;7.60;7.00;;;25.10;99.90;;;;;;5071164;28;21137;-62
2021/10/01 13:45:26;;;;;;;6.73;6.17;;;25.40;99.90;;;;;;5071352;28;20437;-61
2021/10/01 13:47:52;;;;;;;7.60;7.10;;;25.30;99.90;;;;;;5067528;28;20226;-54
2021/10/01 13:50:18;;;;;;;7.40;6.80;;;25.00;99.90;;;;;;5072576;28;20243;-55
2021/10/01 13:52:44;;;;;;;6.90;6.50;;;24.50;99.90;;;;;;5066186;28;20794;-55
2021/10/01 13:55:11;;;;;;;7.07;6.53;;;24.60;99.90;;;;;;5079256;28;20435;-55
2021/10/01 13:57:38;;;;;;;7.57;6.97;;;24.80;99.90;;;;;;5080397;28;20638;-57
2021/10/01 14:00:06;;;;;;;7.60;7.00;;;24.50;99.90;;;;;;5084200;28;20484;-54
2021/10/01 14:02:37;;;;;;;7.60;7.00;;;24.30;99.90;;;;;;5080885;28;20503;-56
2021/10/01 14:05:05;;;;;;;7.10;6.60;;;24.10;99.90;;;;;;5083195;28;20894;-53
2021/10/01 14:07:31;;;;;;;7.77;7.27;;;23.40;99.90;;;;;;5071881;28;20502;-52
2021/10/01 14:09:59;;;;;;;7.20;6.80;;;23.20;99.90;;;;;;5069478;28;20456;-51
2021/10/01 14:12:27;;;;;;;6.57;6.00;;;23.10;99.90;;;;;;5076587;28;20189;-55
2021/10/01 14:14:53;;;;;;;6.90;6.40;;;23.10;99.90;;;;;;5062531;28;20470;-54
2021/10/01 14:17:18;;;;;;;7.70;7.10;;;22.80;99.90;;;;;;5070034;28;21428;-58
2021/10/01 14:19:44;;;;;;;6.80;6.23;;;23.20;99.90;;;;;;5081396;28;20346;-52
2021/10/01 14:22:09;;;;;;;6.50;6.10;;;23.50;99.90;;;;;;5072208;28;20508;-53
2021/10/01 14:24:37;;;;;;;7.37;6.97;;;23.40;99.90;;;;;;5070684;28;20733;-54
2021/10/01 14:27:04;;;;;;;7.07;6.67;;;23.30;99.90;;;;;;5090364;28;20234;-55
2021/10/01 14:29:29;;;;;;;7.60;7.10;;;23.40;99.90;;;;;;5090862;28;20782;-54
2021/10/01 14:31:55;;;;;;;6.67;6.27;;;23.60;99.90;;;;;;5072244;28;20416;-55
2021/10/01 14:34:20;;;;;;;8.00;7.37;;;23.60;99.90;;;;;;5071569;28;20177;-55
2021/10/01 14:36:46;;;;;;;7.97;7.17;;;23.20;99.90;;;;;;5088812;28;20189;-56